Santa Maria, CA

7:23 PM PDT on September 15, 2014 (GMT -0700)
Harp Springs | Change Station
CLOSE
Current Station
Personal Weather Station
Location: Santa Maria, CA
Elevation: 466 ft
Nearby Weather Stations

Elev 466 ft 34.86 °N, 120.41 °W | Updated 2 minutes ago

Clear
Clear
66.9 °F
Feels Like 66.9 °F
N
3.7
Wind Variable Wind from SW

Today
High -- | Low -- °F
--% Chance of Precip.
Yesterday
High -- | Low -- °F
Precip. -- in
6:44 AM 7:08 PM
Waning Gibbous, 50% visible
Pressure 29.88 in
Visibility 9.0 miles
Clouds Clear
Dew Point 58 °F
Humidity 72%
Rainfall 0.00 in
Snow Depth 0 in , 1 in , 0 in
UV 1 out of 12
Pollen 7.70 out of 12
Ozone Good
PM2.5 Good
Flu Activity Not available.
METAR KSMX 160051Z 31010KT 9SM CLR 23/13 A2988 RMK AO2 SLP118 T02330128

More Conditions Fewer Conditions

Pressure 29.88 in
Visibility 9.0 miles
Clouds Clear
Dew Point 58 °F
Humidity 72%
Rainfall 0.00 in
Snow Depth 0 in , 1 in , 0 in
UV 1 out of 12
Pollen 7.70 out of 12
Ozone Good
PM2.5 Good
Flu Activity Not available.
METAR KSMX 160051Z 31010KT 9SM CLR 23/13 A2988 RMK AO2 SLP118 T02330128

More Conditions Fewer Conditions

10-Day Weather Forecast

Almanac

Astronomy

Sep. 15, 2014 Rise Set
Actual Time 6:44 AM PDT 7:08 PM PDT
Civil Twilight 6:18 AM PDT 7:33 PM PDT
Nautical Twilight 5:49 AM PDT 8:02 PM PDT
Astronomical Twilight 5:19 AM PDT 8:33 PM PDT
Moon No Moon Rise 1:35 PM PDT (9/15)
Length of Visible Light 13h 14m
Length of Day
12h 23m
Tomorrow will be 2m 9s shorter.
Waning Gibbous, 50% of the Moon is Illuminated
Today
Waning Gibbous
Sep 24
New
Oct 1
First Quarter
Oct 8
Full
Oct 15
Last Quarter

Today's Extremes

State Highs State Lows

Community

WunderPhotos

Upload Photos

1,753,666 photos uploaded!

Nearby

Air Quality

  Air Quality AQ Index Pollutant
Yesterday Good
PM10
Yesterday Good
OZONE
Current Good
PM2.5
Current Good
OZONE
Monday Good
PM2.5
Monday Good
OZONE
Tuesday Good
PM2.5
Tuesday Good
OZONE

Snow Depth

Station Depth Elevation
Spratt Creek 0 in 6200 ft
CSS Lab 1 in 6900 ft
Adin Mountain 0 in 6200 ft
Summit Meadow 0 in 9122 ft

Earthquake Activity

City Distance Mag. Time & Date
No recent earthquake activity has been reported nearby.
Minimum magnitude displayed is 2.5.

Coastal Water Temperatures

Place Temperature
Port San Luis, CA 60.1 °F
Santa Monica Pier 66.9 °F

Nearby Weather Stations